sensor_id;sensor_type;location;lat;lon;timestamp;P1;durP1;ratioP1;P2;durP2;ratioP2
6519;SDS011;3293;51.690;5.982;2023-07-13T00:00:41;7.87;;;3.47;;
6519;SDS011;3293;51.690;5.982;2023-07-13T00:05:42;8.03;;;3.03;;
6519;SDS011;3293;51.690;5.982;2023-07-13T00:10:42;9.83;;;3.93;;
6519;SDS011;3293;51.690;5.982;2023-07-13T00:15:42;10.57;;;3.63;;
6519;SDS011;3293;51.690;5.982;2023-07-13T00:20:42;8.53;;;3.63;;
6519;SDS011;3293;51.690;5.982;2023-07-13T00:25:42;8.10;;;3.30;;
6519;SDS011;3293;51.690;5.982;2023-07-13T00:30:42;6.00;;;3.43;;
6519;SDS011;3293;51.690;5.982;2023-07-13T00:35:43;6.70;;;3.00;;
6519;SDS011;3293;51.690;5.982;2023-07-13T00:40:43;12.20;;;3.60;;
6519;SDS011;3293;51.690;5.982;2023-07-13T00:50:44;5.90;;;3.07;;
6519;SDS011;3293;51.690;5.982;2023-07-13T00:55:46;7.33;;;3.27;;
6519;SDS011;3293;51.690;5.982;2023-07-13T01:00:49;7.97;;;3.30;;
6519;SDS011;3293;51.690;5.982;2023-07-13T01:05:51;7.33;;;3.57;;
6519;SDS011;3293;51.690;5.982;2023-07-13T01:10:54;7.13;;;3.10;;
6519;SDS011;3293;51.690;5.982;2023-07-13T01:15:56;6.57;;;3.60;;
6519;SDS011;3293;51.690;5.982;2023-07-13T01:21:02;8.80;;;3.53;;
6519;SDS011;3293;51.690;5.982;2023-07-13T01:26:03;6.90;;;3.20;;
6519;SDS011;3293;51.690;5.982;2023-07-13T01:31:03;6.10;;;3.07;;
6519;SDS011;3293;51.690;5.982;2023-07-13T01:36:04;5.87;;;3.40;;
6519;SDS011;3293;51.690;5.982;2023-07-13T01:41:04;7.07;;;3.60;;
6519;SDS011;3293;51.690;5.982;2023-07-13T01:46:04;6.93;;;3.50;;
6519;SDS011;3293;51.690;5.982;2023-07-13T01:51:04;7.10;;;3.30;;
6519;SDS011;3293;51.690;5.982;2023-07-13T01:56:04;7.83;;;3.53;;
6519;SDS011;3293;51.690;5.982;2023-07-13T02:01:04;11.87;;;3.97;;
6519;SDS011;3293;51.690;5.982;2023-07-13T02:06:04;8.17;;;3.50;;
6519;SDS011;3293;51.690;5.982;2023-07-13T02:11:04;6.57;;;3.50;;
6519;SDS011;3293;51.690;5.982;2023-07-13T02:16:04;12.90;;;4.13;;
6519;SDS011;3293;51.690;5.982;2023-07-13T02:21:05;8.23;;;3.97;;
6519;SDS011;3293;51.690;5.982;2023-07-13T02:26:05;8.47;;;3.47;;
6519;SDS011;3293;51.690;5.982;2023-07-13T02:31:06;12.40;;;4.03;;
6519;SDS011;3293;51.690;5.982;2023-07-13T02:36:07;6.17;;;3.50;;
6519;SDS011;3293;51.690;5.982;2023-07-13T02:41:08;8.00;;;3.53;;
6519;SDS011;3293;51.690;5.982;2023-07-13T02:46:08;5.77;;;3.33;;
6519;SDS011;3293;51.690;5.982;2023-07-13T02:51:08;7.73;;;3.40;;
6519;SDS011;3293;51.690;5.982;2023-07-13T02:56:09;8.37;;;3.43;;
6519;SDS011;3293;51.690;5.982;2023-07-13T03:01:09;6.07;;;3.33;;
6519;SDS011;3293;51.690;5.982;2023-07-13T03:06:10;7.43;;;3.70;;
6519;SDS011;3293;51.690;5.982;2023-07-13T03:11:12;9.93;;;3.73;;
6519;SDS011;3293;51.690;5.982;2023-07-13T03:16:14;12.30;;;4.27;;
6519;SDS011;3293;51.690;5.982;2023-07-13T03:21:15;10.50;;;3.67;;
6519;SDS011;3293;51.690;5.982;2023-07-13T03:26:16;8.57;;;3.83;;
6519;SDS011;3293;51.690;5.982;2023-07-13T03:31:20;8.23;;;3.97;;
6519;SDS011;3293;51.690;5.982;2023-07-13T03:36:24;4.90;;;3.50;;
6519;SDS011;3293;51.690;5.982;2023-07-13T03:41:26;8.10;;;3.80;;
6519;SDS011;3293;51.690;5.982;2023-07-13T03:46:26;10.53;;;4.33;;
6519;SDS011;3293;51.690;5.982;2023-07-13T03:51:26;8.60;;;4.13;;
6519;SDS011;3293;51.690;5.982;2023-07-13T03:56:26;9.47;;;3.70;;
6519;SDS011;3293;51.690;5.982;2023-07-13T04:01:26;9.53;;;3.73;;
6519;SDS011;3293;51.690;5.982;2023-07-13T04:06:27;10.30;;;4.17;;
6519;SDS011;3293;51.690;5.982;2023-07-13T04:11:29;11.13;;;4.20;;
6519;SDS011;3293;51.690;5.982;2023-07-13T04:16:31;9.53;;;4.53;;
6519;SDS011;3293;51.690;5.982;2023-07-13T04:21:32;8.33;;;3.73;;
6519;SDS011;3293;51.690;5.982;2023-07-13T04:26:32;15.23;;;4.43;;
6519;SDS011;3293;51.690;5.982;2023-07-13T04:31:35;10.27;;;4.83;;
6519;SDS011;3293;51.690;5.982;2023-07-13T04:36:35;8.57;;;4.10;;
6519;SDS011;3293;51.690;5.982;2023-07-13T04:41:36;13.30;;;4.60;;
6519;SDS011;3293;51.690;5.982;2023-07-13T04:46:37;7.60;;;3.60;;
6519;SDS011;3293;51.690;5.982;2023-07-13T04:51:37;7.43;;;4.27;;
6519;SDS011;3293;51.690;5.982;2023-07-13T04:56:37;8.27;;;4.00;;
6519;SDS011;3293;51.690;5.982;2023-07-13T05:01:37;11.93;;;4.60;;
6519;SDS011;3293;51.690;5.982;2023-07-13T05:06:37;9.75;;;4.65;;
6519;SDS011;3293;51.690;5.982;2023-07-13T05:11:38;9.23;;;4.13;;
6519;SDS011;3293;51.690;5.982;2023-07-13T05:16:38;10.13;;;4.97;;
6519;SDS011;3293;51.690;5.982;2023-07-13T05:21:38;13.83;;;5.67;;
6519;SDS011;3293;51.690;5.982;2023-07-13T05:26:38;12.23;;;4.60;;
6519;SDS011;3293;51.690;5.982;2023-07-13T05:31:38;12.63;;;5.30;;
6519;SDS011;3293;51.690;5.982;2023-07-13T05:36:38;12.93;;;5.68;;
6519;SDS011;3293;51.690;5.982;2023-07-13T05:41:38;14.43;;;6.50;;
6519;SDS011;3293;51.690;5.982;2023-07-13T05:46:38;16.13;;;6.00;;
6519;SDS011;3293;51.690;5.982;2023-07-13T05:51:38;15.13;;;7.18;;
6519;SDS011;3293;51.690;5.982;2023-07-13T05:56:37;19.98;;;8.30;;
6519;SDS011;3293;51.690;5.982;2023-07-13T06:01:37;24.58;;;8.93;;
6519;SDS011;3293;51.690;5.982;2023-07-13T06:06:38;20.30;;;9.23;;
6519;SDS011;3293;51.690;5.982;2023-07-13T06:11:38;21.00;;;10.80;;
6519;SDS011;3293;51.690;5.982;2023-07-13T06:16:39;28.25;;;12.90;;
6519;SDS011;3293;51.690;5.982;2023-07-13T06:21:39;22.52;;;11.15;;
6519;SDS011;3293;51.690;5.982;2023-07-13T06:26:39;21.45;;;12.15;;
6519;SDS011;3293;51.690;5.982;2023-07-13T06:31:40;22.20;;;12.13;;
6519;SDS011;3293;51.690;5.982;2023-07-13T06:36:39;23.45;;;12.38;;
6519;SDS011;3293;51.690;5.982;2023-07-13T06:41:40;23.23;;;11.65;;
6519;SDS011;3293;51.690;5.982;2023-07-13T06:46:40;21.80;;;10.57;;
6519;SDS011;3293;51.690;5.982;2023-07-13T06:51:40;20.25;;;10.30;;
6519;SDS011;3293;51.690;5.982;2023-07-13T06:56:41;22.58;;;10.60;;
6519;SDS011;3293;51.690;5.982;2023-07-13T07:01:41;20.38;;;9.70;;
6519;SDS011;3293;51.690;5.982;2023-07-13T07:06:41;20.25;;;10.25;;
6519;SDS011;3293;51.690;5.982;2023-07-13T07:11:41;19.65;;;8.93;;
6519;SDS011;3293;51.690;5.982;2023-07-13T07:16:41;18.77;;;10.20;;
6519;SDS011;3293;51.690;5.982;2023-07-13T07:21:41;18.50;;;10.05;;
6519;SDS011;3293;51.690;5.982;2023-07-13T07:26:41;15.93;;;9.63;;
6519;SDS011;3293;51.690;5.982;2023-07-13T07:31:41;18.85;;;10.00;;
6519;SDS011;3293;51.690;5.982;2023-07-13T07:36:41;22.38;;;9.82;;
6519;SDS011;3293;51.690;5.982;2023-07-13T07:41:41;21.70;;;10.38;;
6519;SDS011;3293;51.690;5.982;2023-07-13T07:46:41;23.85;;;10.57;;
6519;SDS011;3293;51.690;5.982;2023-07-13T07:51:41;26.35;;;9.45;;
6519;SDS011;3293;51.690;5.982;2023-07-13T07:56:42;20.40;;;8.88;;
6519;SDS011;3293;51.690;5.982;2023-07-13T08:01:42;20.10;;;10.00;;
6519;SDS011;3293;51.690;5.982;2023-07-13T08:06:44;17.73;;;9.30;;
6519;SDS011;3293;51.690;5.982;2023-07-13T08:11:44;17.65;;;9.23;;
6519;SDS011;3293;51.690;5.982;2023-07-13T08:16:44;18.33;;;9.13;;
6519;SDS011;3293;51.690;5.982;2023-07-13T08:21:44;16.77;;;9.05;;
6519;SDS011;3293;51.690;5.982;2023-07-13T08:26:47;22.63;;;9.57;;
6519;SDS011;3293;51.690;5.982;2023-07-13T08:31:47;17.58;;;9.25;;
6519;SDS011;3293;51.690;5.982;2023-07-13T08:36:47;12.13;;;7.97;;
6519;SDS011;3293;51.690;5.982;2023-07-13T08:41:47;11.90;;;7.30;;
6519;SDS011;3293;51.690;5.982;2023-07-13T08:46:55;15.43;;;7.18;;
6519;SDS011;3293;51.690;5.982;2023-07-13T08:52:00;16.83;;;7.30;;
6519;SDS011;3293;51.690;5.982;2023-07-13T08:57:02;22.48;;;7.30;;
6519;SDS011;3293;51.690;5.982;2023-07-13T09:13:12;14.25;;;5.57;;
6519;SDS011;3293;51.690;5.982;2023-07-13T09:18:27;12.80;;;5.38;;
6519;SDS011;3293;51.690;5.982;2023-07-13T09:23:28;11.95;;;5.50;;
6519;SDS011;3293;51.690;5.982;2023-07-13T09:28:33;9.65;;;5.03;;
6519;SDS011;3293;51.690;5.982;2023-07-13T09:33:38;11.25;;;5.10;;
6519;SDS011;3293;51.690;5.982;2023-07-13T09:38:38;9.43;;;4.70;;
6519;SDS011;3293;51.690;5.982;2023-07-13T09:43:38;9.63;;;4.25;;
6519;SDS011;3293;51.690;5.982;2023-07-13T09:48:37;10.70;;;4.43;;
6519;SDS011;3293;51.690;5.982;2023-07-13T09:53:37;13.98;;;4.30;;
6519;SDS011;3293;51.690;5.982;2023-07-13T09:58:37;10.15;;;3.95;;
6519;SDS011;3293;51.690;5.982;2023-07-13T10:03:37;7.07;;;3.35;;
6519;SDS011;3293;51.690;5.982;2023-07-13T10:08:39;8.35;;;3.60;;
6519;SDS011;3293;51.690;5.982;2023-07-13T10:13:48;6.93;;;4.00;;
6519;SDS011;3293;51.690;5.982;2023-07-13T10:19:02;7.43;;;3.22;;
6519;SDS011;3293;51.690;5.982;2023-07-13T10:24:19;7.90;;;3.47;;
6519;SDS011;3293;51.690;5.982;2023-07-13T10:29:25;7.38;;;3.72;;
6519;SDS011;3293;51.690;5.982;2023-07-13T10:34:28;8.73;;;3.90;;
6519;SDS011;3293;51.690;5.982;2023-07-13T10:39:29;10.75;;;3.95;;
6519;SDS011;3293;51.690;5.982;2023-07-13T10:44:30;8.73;;;3.22;;
6519;SDS011;3293;51.690;5.982;2023-07-13T10:49:33;7.88;;;4.10;;
6519;SDS011;3293;51.690;5.982;2023-07-13T10:54:34;4.35;;;2.88;;
6519;SDS011;3293;51.690;5.982;2023-07-13T10:59:36;5.20;;;3.30;;
6519;SDS011;3293;51.690;5.982;2023-07-13T11:04:40;4.13;;;3.00;;
6519;SDS011;3293;51.690;5.982;2023-07-13T11:09:43;8.68;;;3.55;;
6519;SDS011;3293;51.690;5.982;2023-07-13T11:19:53;5.72;;;3.22;;
6519;SDS011;3293;51.690;5.982;2023-07-13T11:35:29;11.05;;;5.80;;
6519;SDS011;3293;51.690;5.982;2023-07-13T11:40:30;6.75;;;4.13;;
6519;SDS011;3293;51.690;5.982;2023-07-13T11:45:30;6.47;;;4.30;;
6519;SDS011;3293;51.690;5.982;2023-07-13T11:50:30;5.18;;;4.40;;
6519;SDS011;3293;51.690;5.982;2023-07-13T11:55:30;6.95;;;5.25;;
6519;SDS011;3293;51.690;5.982;2023-07-13T12:00:31;9.60;;;5.10;;
6519;SDS011;3293;51.690;5.982;2023-07-13T12:05:33;5.38;;;4.55;;
6519;SDS011;3293;51.690;5.982;2023-07-13T12:10:34;8.63;;;5.30;;
6519;SDS011;3293;51.690;5.982;2023-07-13T12:15:40;8.27;;;5.07;;
6519;SDS011;3293;51.690;5.982;2023-07-13T12:20:44;5.38;;;4.82;;
6519;SDS011;3293;51.690;5.982;2023-07-13T12:25:45;9.13;;;6.38;;
6519;SDS011;3293;51.690;5.982;2023-07-13T12:30:49;6.15;;;4.50;;
6519;SDS011;3293;51.690;5.982;2023-07-13T12:35:56;5.90;;;3.90;;
6519;SDS011;3293;51.690;5.982;2023-07-13T12:40:59;5.75;;;3.75;;
6519;SDS011;3293;51.690;5.982;2023-07-13T12:46:03;5.53;;;3.58;;
6519;SDS011;3293;51.690;5.982;2023-07-13T12:51:14;6.90;;;4.50;;
6519;SDS011;3293;51.690;5.982;2023-07-13T12:56:17;5.88;;;4.50;;
6519;SDS011;3293;51.690;5.982;2023-07-13T13:01:22;9.02;;;5.57;;
6519;SDS011;3293;51.690;5.982;2023-07-13T13:06:27;10.05;;;5.32;;
6519;SDS011;3293;51.690;5.982;2023-07-13T13:11:29;10.40;;;7.07;;
6519;SDS011;3293;51.690;5.982;2023-07-13T13:16:32;11.07;;;7.10;;
6519;SDS011;3293;51.690;5.982;2023-07-13T13:21:34;10.00;;;6.53;;
6519;SDS011;3293;51.690;5.982;2023-07-13T13:26:34;11.50;;;6.25;;
6519;SDS011;3293;51.690;5.982;2023-07-13T13:31:34;9.20;;;7.22;;
6519;SDS011;3293;51.690;5.982;2023-07-13T13:36:34;6.95;;;5.68;;
6519;SDS011;3293;51.690;5.982;2023-07-13T13:41:34;8.50;;;5.90;;
6519;SDS011;3293;51.690;5.982;2023-07-13T13:46:34;11.63;;;5.88;;
6519;SDS011;3293;51.690;5.982;2023-07-13T13:51:34;9.40;;;5.05;;
6519;SDS011;3293;51.690;5.982;2023-07-13T13:56:34;6.35;;;4.85;;
6519;SDS011;3293;51.690;5.982;2023-07-13T14:01:34;6.70;;;3.97;;
6519;SDS011;3293;51.690;5.982;2023-07-13T14:06:35;7.05;;;3.60;;
6519;SDS011;3293;51.690;5.982;2023-07-13T14:11:35;7.55;;;3.83;;
6519;SDS011;3293;51.690;5.982;2023-07-13T14:16:35;6.18;;;4.03;;
6519;SDS011;3293;51.690;5.982;2023-07-13T14:21:35;8.73;;;4.15;;
6519;SDS011;3293;51.690;5.982;2023-07-13T14:26:39;7.40;;;4.03;;
6519;SDS011;3293;51.690;5.982;2023-07-13T14:31:40;8.57;;;4.40;;
6519;SDS011;3293;51.690;5.982;2023-07-13T14:36:47;7.45;;;4.35;;
6519;SDS011;3293;51.690;5.982;2023-07-13T14:41:55;7.00;;;3.90;;
6519;SDS011;3293;51.690;5.982;2023-07-13T14:46:56;4.68;;;3.33;;
6519;SDS011;3293;51.690;5.982;2023-07-13T14:51:59;4.13;;;3.22;;
6519;SDS011;3293;51.690;5.982;2023-07-13T14:57:01;5.03;;;3.40;;
6519;SDS011;3293;51.690;5.982;2023-07-13T15:02:01;4.68;;;3.05;;
6519;SDS011;3293;51.690;5.982;2023-07-13T15:07:02;4.18;;;3.35;;
6519;SDS011;3293;51.690;5.982;2023-07-13T15:12:02;5.60;;;3.00;;
6519;SDS011;3293;51.690;5.982;2023-07-13T15:17:03;3.78;;;2.50;;
6519;SDS011;3293;51.690;5.982;2023-07-13T15:22:03;4.60;;;3.17;;
6519;SDS011;3293;51.690;5.982;2023-07-13T15:27:08;5.75;;;2.70;;
6519;SDS011;3293;51.690;5.982;2023-07-13T15:32:15;4.63;;;2.80;;
6519;SDS011;3293;51.690;5.982;2023-07-13T15:37:16;4.43;;;2.70;;
6519;SDS011;3293;51.690;5.982;2023-07-13T15:42:18;4.82;;;2.45;;
6519;SDS011;3293;51.690;5.982;2023-07-13T15:47:19;5.57;;;2.92;;
6519;SDS011;3293;51.690;5.982;2023-07-13T15:52:24;5.40;;;3.05;;
6519;SDS011;3293;51.690;5.982;2023-07-13T15:57:24;6.38;;;3.00;;
6519;SDS011;3293;51.690;5.982;2023-07-13T16:02:24;6.13;;;2.75;;
6519;SDS011;3293;51.690;5.982;2023-07-13T16:07:24;5.03;;;3.03;;
6519;SDS011;3293;51.690;5.982;2023-07-13T16:12:25;4.32;;;3.25;;
6519;SDS011;3293;51.690;5.982;2023-07-13T16:17:25;6.78;;;3.10;;
6519;SDS011;3293;51.690;5.982;2023-07-13T16:22:27;6.47;;;2.92;;
6519;SDS011;3293;51.690;5.982;2023-07-13T16:27:27;5.05;;;2.83;;
6519;SDS011;3293;51.690;5.982;2023-07-13T16:32:27;6.93;;;3.08;;
6519;SDS011;3293;51.690;5.982;2023-07-13T16:37:28;3.90;;;2.50;;
6519;SDS011;3293;51.690;5.982;2023-07-13T16:42:28;4.45;;;2.97;;
6519;SDS011;3293;51.690;5.982;2023-07-13T16:47:30;4.35;;;3.00;;
6519;SDS011;3293;51.690;5.982;2023-07-13T16:52:30;4.05;;;2.63;;
6519;SDS011;3293;51.690;5.982;2023-07-13T16:57:31;5.03;;;2.55;;
6519;SDS011;3293;51.690;5.982;2023-07-13T17:02:34;6.13;;;2.72;;
6519;SDS011;3293;51.690;5.982;2023-07-13T17:07:35;3.80;;;2.33;;
6519;SDS011;3293;51.690;5.982;2023-07-13T17:12:36;5.68;;;2.97;;
6519;SDS011;3293;51.690;5.982;2023-07-13T17:17:36;4.00;;;3.00;;
6519;SDS011;3293;51.690;5.982;2023-07-13T17:22:41;5.32;;;3.20;;
6519;SDS011;3293;51.690;5.982;2023-07-13T17:27:45;4.68;;;3.20;;
6519;SDS011;3293;51.690;5.982;2023-07-13T17:32:45;6.65;;;3.03;;
6519;SDS011;3293;51.690;5.982;2023-07-13T17:37:47;4.20;;;2.92;;
6519;SDS011;3293;51.690;5.982;2023-07-13T17:42:48;5.13;;;2.97;;
6519;SDS011;3293;51.690;5.982;2023-07-13T17:47:53;5.78;;;3.42;;
6519;SDS011;3293;51.690;5.982;2023-07-13T17:52:54;6.13;;;3.90;;
6519;SDS011;3293;51.690;5.982;2023-07-13T17:57:55;6.30;;;4.00;;
6519;SDS011;3293;51.690;5.982;2023-07-13T18:02:56;7.18;;;3.83;;
6519;SDS011;3293;51.690;5.982;2023-07-13T18:08:02;4.95;;;3.47;;
6519;SDS011;3293;51.690;5.982;2023-07-13T18:13:04;7.45;;;3.60;;
6519;SDS011;3293;51.690;5.982;2023-07-13T18:18:04;8.68;;;4.75;;
6519;SDS011;3293;51.690;5.982;2023-07-13T18:23:08;6.90;;;4.55;;
6519;SDS011;3293;51.690;5.982;2023-07-13T18:28:17;6.60;;;4.82;;
6519;SDS011;3293;51.690;5.982;2023-07-13T18:33:21;5.95;;;5.15;;
6519;SDS011;3293;51.690;5.982;2023-07-13T18:38:28;7.97;;;5.53;;
6519;SDS011;3293;51.690;5.982;2023-07-13T18:43:30;8.52;;;5.68;;
6519;SDS011;3293;51.690;5.982;2023-07-13T18:48:31;7.63;;;6.30;;
6519;SDS011;3293;51.690;5.982;2023-07-13T18:53:32;9.88;;;6.38;;
6519;SDS011;3293;51.690;5.982;2023-07-13T18:58:31;6.00;;;5.35;;
6519;SDS011;3293;51.690;5.982;2023-07-13T19:03:33;9.18;;;5.90;;
6519;SDS011;3293;51.690;5.982;2023-07-13T19:08:33;6.75;;;5.95;;
6519;SDS011;3293;51.690;5.982;2023-07-13T19:13:36;9.15;;;6.50;;
6519;SDS011;3293;51.690;5.982;2023-07-13T19:18:38;7.88;;;6.20;;
6519;SDS011;3293;51.690;5.982;2023-07-13T19:23:39;7.43;;;5.88;;
6519;SDS011;3293;51.690;5.982;2023-07-13T19:28:43;9.40;;;6.65;;
6519;SDS011;3293;51.690;5.982;2023-07-13T19:33:43;8.32;;;6.30;;
6519;SDS011;3293;51.690;5.982;2023-07-13T19:38:43;10.45;;;7.30;;
6519;SDS011;3293;51.690;5.982;2023-07-13T19:43:44;10.93;;;7.07;;
6519;SDS011;3293;51.690;5.982;2023-07-13T19:48:46;9.20;;;7.30;;
6519;SDS011;3293;51.690;5.982;2023-07-13T19:53:52;11.20;;;6.80;;
6519;SDS011;3293;51.690;5.982;2023-07-13T19:58:55;9.98;;;6.32;;
6519;SDS011;3293;51.690;5.982;2023-07-13T20:03:57;8.52;;;7.18;;
6519;SDS011;3293;51.690;5.982;2023-07-13T20:08:57;8.00;;;6.85;;
6519;SDS011;3293;51.690;5.982;2023-07-13T20:13:59;8.88;;;7.45;;
6519;SDS011;3293;51.690;5.982;2023-07-13T20:19:00;9.90;;;6.28;;
6519;SDS011;3293;51.690;5.982;2023-07-13T20:24:00;9.60;;;6.80;;
6519;SDS011;3293;51.690;5.982;2023-07-13T20:29:15;7.55;;;6.13;;
6519;SDS011;3293;51.690;5.982;2023-07-13T20:34:18;9.75;;;6.32;;
6519;SDS011;3293;51.690;5.982;2023-07-13T20:39:21;9.27;;;6.40;;
6519;SDS011;3293;51.690;5.982;2023-07-13T20:44:22;7.30;;;6.25;;
6519;SDS011;3293;51.690;5.982;2023-07-13T20:49:22;10.00;;;6.00;;
6519;SDS011;3293;51.690;5.982;2023-07-13T20:54:27;9.30;;;6.03;;
6519;SDS011;3293;51.690;5.982;2023-07-13T20:59:27;10.95;;;6.18;;
6519;SDS011;3293;51.690;5.982;2023-07-13T21:04:28;6.95;;;6.00;;
6519;SDS011;3293;51.690;5.982;2023-07-13T21:09:29;8.25;;;6.05;;
6519;SDS011;3293;51.690;5.982;2023-07-13T21:14:30;8.35;;;6.15;;
6519;SDS011;3293;51.690;5.982;2023-07-13T21:19:31;8.88;;;5.82;;
6519;SDS011;3293;51.690;5.982;2023-07-13T21:24:31;7.65;;;6.15;;
6519;SDS011;3293;51.690;5.982;2023-07-13T21:29:32;6.80;;;5.80;;
6519;SDS011;3293;51.690;5.982;2023-07-13T21:34:32;6.43;;;5.78;;
6519;SDS011;3293;51.690;5.982;2023-07-13T21:39:32;8.65;;;5.97;;
6519;SDS011;3293;51.690;5.982;2023-07-13T21:44:32;9.47;;;6.77;;
6519;SDS011;3293;51.690;5.982;2023-07-13T21:49:32;8.30;;;6.60;;
6519;SDS011;3293;51.690;5.982;2023-07-13T21:54:32;10.10;;;7.33;;
6519;SDS011;3293;51.690;5.982;2023-07-13T21:59:32;8.53;;;6.97;;
6519;SDS011;3293;51.690;5.982;2023-07-13T22:04:32;7.30;;;5.93;;
6519;SDS011;3293;51.690;5.982;2023-07-13T22:09:32;7.73;;;6.63;;
6519;SDS011;3293;51.690;5.982;2023-07-13T22:14:32;12.20;;;7.37;;
6519;SDS011;3293;51.690;5.982;2023-07-13T22:19:32;8.70;;;6.70;;
6519;SDS011;3293;51.690;5.982;2023-07-13T22:24:32;9.17;;;6.57;;
6519;SDS011;3293;51.690;5.982;2023-07-13T22:29:33;7.40;;;6.27;;
6519;SDS011;3293;51.690;5.982;2023-07-13T22:34:33;8.20;;;7.40;;
6519;SDS011;3293;51.690;5.982;2023-07-13T22:39:34;9.15;;;8.18;;
6519;SDS011;3293;51.690;5.982;2023-07-13T22:44:34;10.60;;;9.10;;
6519;SDS011;3293;51.690;5.982;2023-07-13T22:49:35;12.37;;;11.07;;
6519;SDS011;3293;51.690;5.982;2023-07-13T22:54:34;11.33;;;9.63;;
6519;SDS011;3293;51.690;5.982;2023-07-13T22:59:35;12.27;;;11.02;;
6519;SDS011;3293;51.690;5.982;2023-07-13T23:04:36;14.73;;;10.10;;
6519;SDS011;3293;51.690;5.982;2023-07-13T23:09:36;11.07;;;9.90;;
6519;SDS011;3293;51.690;5.982;2023-07-13T23:14:36;12.48;;;11.27;;
6519;SDS011;3293;51.690;5.982;2023-07-13T23:19:36;12.53;;;11.17;;
6519;SDS011;3293;51.690;5.982;2023-07-13T23:24:36;12.05;;;10.75;;
6519;SDS011;3293;51.690;5.982;2023-07-13T23:29:36;11.67;;;10.00;;
6519;SDS011;3293;51.690;5.982;2023-07-13T23:34:36;11.55;;;10.35;;
6519;SDS011;3293;51.690;5.982;2023-07-13T23:39:36;10.97;;;9.87;;
6519;SDS011;3293;51.690;5.982;2023-07-13T23:44:36;11.07;;;9.32;;
6519;SDS011;3293;51.690;5.982;2023-07-13T23:49:36;12.20;;;9.57;;
6519;SDS011;3293;51.690;5.982;2023-07-13T23:54:36;12.17;;;9.77;;
6519;SDS011;3293;51.690;5.982;2023-07-13T23:59:36;13.43;;;10.13;;
